sensor_id;sensor_type;location;lat;lon;timestamp;P1;durP1;ratioP1;P2;durP2;ratioP2
57856;SDS011;43683;48.650;9.290;2023-07-29T00:00:46;4.28;;;2.08;;
57856;SDS011;43683;48.650;9.290;2023-07-29T00:03:12;4.20;;;2.30;;
57856;SDS011;43683;48.650;9.290;2023-07-29T00:05:38;3.40;;;2.13;;
57856;SDS011;43683;48.650;9.290;2023-07-29T00:08:04;3.58;;;2.05;;
57856;SDS011;43683;48.650;9.290;2023-07-29T00:10:31;4.00;;;2.17;;
57856;SDS011;43683;48.650;9.290;2023-07-29T00:12:58;5.47;;;2.28;;
57856;SDS011;43683;48.650;9.290;2023-07-29T00:15:24;3.75;;;2.00;;
57856;SDS011;43683;48.650;9.290;2023-07-29T00:17:49;4.38;;;2.05;;
57856;SDS011;43683;48.650;9.290;2023-07-29T00:20:15;5.60;;;2.42;;
57856;SDS011;43683;48.650;9.290;2023-07-29T00:22:41;3.33;;;2.10;;
57856;SDS011;43683;48.650;9.290;2023-07-29T00:25:07;3.72;;;2.17;;
57856;SDS011;43683;48.650;9.290;2023-07-29T00:27:33;4.00;;;2.08;;
57856;SDS011;43683;48.650;9.290;2023-07-29T00:29:58;3.92;;;2.30;;
57856;SDS011;43683;48.650;9.290;2023-07-29T00:32:25;4.47;;;2.28;;
57856;SDS011;43683;48.650;9.290;2023-07-29T00:34:52;4.05;;;2.28;;
57856;SDS011;43683;48.650;9.290;2023-07-29T00:37:18;3.55;;;1.98;;
57856;SDS011;43683;48.650;9.290;2023-07-29T00:39:43;4.57;;;2.10;;
57856;SDS011;43683;48.650;9.290;2023-07-29T00:42:09;3.22;;;2.00;;
57856;SDS011;43683;48.650;9.290;2023-07-29T00:44:35;4.55;;;2.58;;
57856;SDS011;43683;48.650;9.290;2023-07-29T00:47:02;2.60;;;1.98;;
57856;SDS011;43683;48.650;9.290;2023-07-29T00:49:29;4.38;;;2.10;;
57856;SDS011;43683;48.650;9.290;2023-07-29T00:51:55;4.10;;;2.42;;
57856;SDS011;43683;48.650;9.290;2023-07-29T00:54:21;4.60;;;2.20;;
57856;SDS011;43683;48.650;9.290;2023-07-29T00:56:47;3.15;;;2.10;;
57856;SDS011;43683;48.650;9.290;2023-07-29T00:59:13;3.85;;;2.20;;
57856;SDS011;43683;48.650;9.290;2023-07-29T01:01:39;4.80;;;2.70;;
57856;SDS011;43683;48.650;9.290;2023-07-29T01:04:04;5.53;;;3.05;;
57856;SDS011;43683;48.650;9.290;2023-07-29T01:06:34;4.82;;;2.75;;
57856;SDS011;43683;48.650;9.290;2023-07-29T01:09:20;4.25;;;2.40;;
57856;SDS011;43683;48.650;9.290;2023-07-29T01:14:46;4.53;;;2.38;;
57856;SDS011;43683;48.650;9.290;2023-07-29T01:17:17;4.43;;;2.83;;
57856;SDS011;43683;48.650;9.290;2023-07-29T01:20:07;5.68;;;3.08;;
57856;SDS011;43683;48.650;9.290;2023-07-29T01:22:34;7.47;;;3.20;;
57856;SDS011;43683;48.650;9.290;2023-07-29T01:25:02;6.28;;;3.08;;
57856;SDS011;43683;48.650;9.290;2023-07-29T01:27:31;5.25;;;2.85;;
57856;SDS011;43683;48.650;9.290;2023-07-29T01:29:57;4.88;;;2.70;;
57856;SDS011;43683;48.650;9.290;2023-07-29T01:32:30;4.65;;;2.85;;
57856;SDS011;43683;48.650;9.290;2023-07-29T01:35:14;6.13;;;3.08;;
57856;SDS011;43683;48.650;9.290;2023-07-29T01:38:05;5.00;;;2.80;;
57856;SDS011;43683;48.650;9.290;2023-07-29T01:40:34;5.85;;;3.05;;
57856;SDS011;43683;48.650;9.290;2023-07-29T01:43:00;7.20;;;3.33;;
57856;SDS011;43683;48.650;9.290;2023-07-29T01:45:27;10.55;;;4.95;;
57856;SDS011;43683;48.650;9.290;2023-07-29T01:47:56;6.22;;;3.50;;
57856;SDS011;43683;48.650;9.290;2023-07-29T01:50:22;5.47;;;3.00;;
57856;SDS011;43683;48.650;9.290;2023-07-29T01:52:48;6.38;;;3.10;;
57856;SDS011;43683;48.650;9.290;2023-07-29T01:55:14;4.65;;;2.90;;
57856;SDS011;43683;48.650;9.290;2023-07-29T01:57:39;5.38;;;3.20;;
57856;SDS011;43683;48.650;9.290;2023-07-29T02:00:05;4.30;;;2.85;;
57856;SDS011;43683;48.650;9.290;2023-07-29T02:02:32;5.95;;;2.85;;
57856;SDS011;43683;48.650;9.290;2023-07-29T02:04:58;5.38;;;2.92;;
57856;SDS011;43683;48.650;9.290;2023-07-29T02:07:24;5.50;;;2.95;;
57856;SDS011;43683;48.650;9.290;2023-07-29T02:12:17;4.95;;;2.58;;
57856;SDS011;43683;48.650;9.290;2023-07-29T02:14:42;4.82;;;2.50;;
57856;SDS011;43683;48.650;9.290;2023-07-29T02:17:08;4.57;;;2.40;;
57856;SDS011;43683;48.650;9.290;2023-07-29T02:19:34;4.13;;;2.55;;
57856;SDS011;43683;48.650;9.290;2023-07-29T02:22:00;3.83;;;2.63;;
57856;SDS011;43683;48.650;9.290;2023-07-29T02:24:25;4.00;;;2.28;;
57856;SDS011;43683;48.650;9.290;2023-07-29T02:26:51;4.13;;;2.10;;
57856;SDS011;43683;48.650;9.290;2023-07-29T02:29:17;3.40;;;2.00;;
57856;SDS011;43683;48.650;9.290;2023-07-29T02:31:43;3.38;;;1.73;;
57856;SDS011;43683;48.650;9.290;2023-07-29T02:34:09;3.72;;;2.10;;
57856;SDS011;43683;48.650;9.290;2023-07-29T02:36:35;3.45;;;2.10;;
57856;SDS011;43683;48.650;9.290;2023-07-29T02:39:00;3.03;;;1.80;;
57856;SDS011;43683;48.650;9.290;2023-07-29T02:41:26;3.80;;;1.60;;
57856;SDS011;43683;48.650;9.290;2023-07-29T02:43:52;3.67;;;2.00;;
57856;SDS011;43683;48.650;9.290;2023-07-29T02:46:17;3.20;;;1.80;;
57856;SDS011;43683;48.650;9.290;2023-07-29T02:48:44;3.75;;;1.73;;
57856;SDS011;43683;48.650;9.290;2023-07-29T02:51:10;2.47;;;1.60;;
57856;SDS011;43683;48.650;9.290;2023-07-29T02:53:35;2.40;;;1.50;;
57856;SDS011;43683;48.650;9.290;2023-07-29T02:56:02;2.63;;;1.48;;
57856;SDS011;43683;48.650;9.290;2023-07-29T02:58:28;4.25;;;1.65;;
57856;SDS011;43683;48.650;9.290;2023-07-29T03:01:00;3.60;;;1.80;;
57856;SDS011;43683;48.650;9.290;2023-07-29T03:03:27;4.97;;;2.05;;
57856;SDS011;43683;48.650;9.290;2023-07-29T03:05:58;2.63;;;1.65;;
57856;SDS011;43683;48.650;9.290;2023-07-29T03:08:27;2.53;;;1.80;;
57856;SDS011;43683;48.650;9.290;2023-07-29T03:10:54;2.58;;;1.77;;
57856;SDS011;43683;48.650;9.290;2023-07-29T03:13:20;2.90;;;1.65;;
57856;SDS011;43683;48.650;9.290;2023-07-29T03:15:45;2.33;;;1.67;;
57856;SDS011;43683;48.650;9.290;2023-07-29T03:18:11;2.50;;;1.45;;
57856;SDS011;43683;48.650;9.290;2023-07-29T03:20:37;3.53;;;1.65;;
57856;SDS011;43683;48.650;9.290;2023-07-29T03:23:03;2.50;;;1.90;;
57856;SDS011;43683;48.650;9.290;2023-07-29T03:25:28;2.72;;;1.60;;
57856;SDS011;43683;48.650;9.290;2023-07-29T03:27:54;3.25;;;1.80;;
57856;SDS011;43683;48.650;9.290;2023-07-29T03:30:20;3.25;;;1.70;;
57856;SDS011;43683;48.650;9.290;2023-07-29T03:32:47;3.78;;;1.80;;
57856;SDS011;43683;48.650;9.290;2023-07-29T03:35:14;2.75;;;1.85;;
57856;SDS011;43683;48.650;9.290;2023-07-29T03:37:39;4.18;;;1.88;;
57856;SDS011;43683;48.650;9.290;2023-07-29T03:40:06;3.85;;;1.77;;
57856;SDS011;43683;48.650;9.290;2023-07-29T03:42:32;5.50;;;2.13;;
57856;SDS011;43683;48.650;9.290;2023-07-29T03:44:58;2.58;;;1.73;;
57856;SDS011;43683;48.650;9.290;2023-07-29T03:47:24;3.33;;;2.17;;
57856;SDS011;43683;48.650;9.290;2023-07-29T03:49:50;4.07;;;2.17;;
57856;SDS011;43683;48.650;9.290;2023-07-29T03:52:15;4.63;;;2.03;;
57856;SDS011;43683;48.650;9.290;2023-07-29T03:54:41;3.80;;;1.77;;
57856;SDS011;43683;48.650;9.290;2023-07-29T03:57:07;4.50;;;2.60;;
57856;SDS011;43683;48.650;9.290;2023-07-29T03:59:32;4.30;;;1.90;;
57856;SDS011;43683;48.650;9.290;2023-07-29T04:01:58;2.45;;;1.83;;
57856;SDS011;43683;48.650;9.290;2023-07-29T04:04:24;3.92;;;2.00;;
57856;SDS011;43683;48.650;9.290;2023-07-29T04:06:50;3.08;;;1.92;;
57856;SDS011;43683;48.650;9.290;2023-07-29T04:09:16;5.45;;;2.00;;
57856;SDS011;43683;48.650;9.290;2023-07-29T04:11:41;4.22;;;1.90;;
57856;SDS011;43683;48.650;9.290;2023-07-29T04:14:07;3.13;;;1.90;;
57856;SDS011;43683;48.650;9.290;2023-07-29T04:16:33;4.65;;;2.13;;
57856;SDS011;43683;48.650;9.290;2023-07-29T04:18:58;4.10;;;2.10;;
57856;SDS011;43683;48.650;9.290;2023-07-29T04:21:24;3.38;;;2.03;;
57856;SDS011;43683;48.650;9.290;2023-07-29T04:23:50;3.08;;;2.03;;
57856;SDS011;43683;48.650;9.290;2023-07-29T04:26:16;3.08;;;2.00;;
57856;SDS011;43683;48.650;9.290;2023-07-29T04:28:41;4.80;;;2.22;;
57856;SDS011;43683;48.650;9.290;2023-07-29T04:31:08;3.78;;;2.35;;
57856;SDS011;43683;48.650;9.290;2023-07-29T04:33:33;3.33;;;1.83;;
57856;SDS011;43683;48.650;9.290;2023-07-29T04:35:59;4.78;;;1.98;;
57856;SDS011;43683;48.650;9.290;2023-07-29T04:38:29;2.47;;;1.60;;
57856;SDS011;43683;48.650;9.290;2023-07-29T04:40:57;2.83;;;1.70;;
57856;SDS011;43683;48.650;9.290;2023-07-29T04:43:26;2.53;;;1.75;;
57856;SDS011;43683;48.650;9.290;2023-07-29T04:45:56;3.45;;;1.83;;
57856;SDS011;43683;48.650;9.290;2023-07-29T04:48:22;3.65;;;1.95;;
57856;SDS011;43683;48.650;9.290;2023-07-29T04:50:48;6.90;;;2.20;;
57856;SDS011;43683;48.650;9.290;2023-07-29T04:53:13;4.90;;;2.25;;
57856;SDS011;43683;48.650;9.290;2023-07-29T04:55:42;5.78;;;2.25;;
57856;SDS011;43683;48.650;9.290;2023-07-29T04:58:09;8.07;;;2.47;;
57856;SDS011;43683;48.650;9.290;2023-07-29T05:00:35;6.65;;;2.10;;
57856;SDS011;43683;48.650;9.290;2023-07-29T05:03:01;4.22;;;2.15;;
57856;SDS011;43683;48.650;9.290;2023-07-29T05:05:27;2.58;;;2.10;;
57856;SDS011;43683;48.650;9.290;2023-07-29T05:07:53;9.65;;;2.00;;
57856;SDS011;43683;48.650;9.290;2023-07-29T05:10:18;3.42;;;2.00;;
57856;SDS011;43683;48.650;9.290;2023-07-29T05:12:45;6.20;;;2.57;;
57856;SDS011;43683;48.650;9.290;2023-07-29T05:15:11;5.75;;;2.42;;
57856;SDS011;43683;48.650;9.290;2023-07-29T05:17:36;5.05;;;2.10;;
57856;SDS011;43683;48.650;9.290;2023-07-29T05:20:03;5.50;;;2.08;;
57856;SDS011;43683;48.650;9.290;2023-07-29T05:22:29;4.28;;;2.20;;
57856;SDS011;43683;48.650;9.290;2023-07-29T05:24:54;6.10;;;2.35;;
57856;SDS011;43683;48.650;9.290;2023-07-29T05:27:20;3.40;;;2.00;;
57856;SDS011;43683;48.650;9.290;2023-07-29T05:29:45;3.50;;;1.73;;
57856;SDS011;43683;48.650;9.290;2023-07-29T05:32:11;5.10;;;1.90;;
57856;SDS011;43683;48.650;9.290;2023-07-29T05:34:37;3.85;;;2.13;;
57856;SDS011;43683;48.650;9.290;2023-07-29T05:37:02;4.85;;;1.60;;
57856;SDS011;43683;48.650;9.290;2023-07-29T05:39:28;4.68;;;1.77;;
57856;SDS011;43683;48.650;9.290;2023-07-29T05:41:54;9.05;;;2.40;;
57856;SDS011;43683;48.650;9.290;2023-07-29T05:44:20;4.53;;;1.88;;
57856;SDS011;43683;48.650;9.290;2023-07-29T05:46:45;3.30;;;1.70;;
57856;SDS011;43683;48.650;9.290;2023-07-29T05:49:11;4.55;;;1.90;;
57856;SDS011;43683;48.650;9.290;2023-07-29T05:51:36;3.45;;;1.90;;
57856;SDS011;43683;48.650;9.290;2023-07-29T05:54:02;4.85;;;1.90;;
57856;SDS011;43683;48.650;9.290;2023-07-29T05:56:27;4.18;;;2.25;;
57856;SDS011;43683;48.650;9.290;2023-07-29T05:58:53;2.42;;;1.40;;
57856;SDS011;43683;48.650;9.290;2023-07-29T06:01:19;3.83;;;1.60;;
57856;SDS011;43683;48.650;9.290;2023-07-29T06:03:46;2.78;;;1.70;;
57856;SDS011;43683;48.650;9.290;2023-07-29T06:06:12;2.63;;;1.63;;
57856;SDS011;43683;48.650;9.290;2023-07-29T06:08:37;2.85;;;1.60;;
57856;SDS011;43683;48.650;9.290;2023-07-29T06:11:03;3.08;;;1.65;;
57856;SDS011;43683;48.650;9.290;2023-07-29T06:13:31;3.97;;;1.88;;
57856;SDS011;43683;48.650;9.290;2023-07-29T06:15:57;2.83;;;1.25;;
57856;SDS011;43683;48.650;9.290;2023-07-29T06:18:22;1.88;;;1.27;;
57856;SDS011;43683;48.650;9.290;2023-07-29T06:20:48;3.22;;;1.30;;
57856;SDS011;43683;48.650;9.290;2023-07-29T06:23:13;1.85;;;1.05;;
57856;SDS011;43683;48.650;9.290;2023-07-29T06:25:39;3.22;;;1.20;;
57856;SDS011;43683;48.650;9.290;2023-07-29T06:28:04;1.60;;;1.10;;
57856;SDS011;43683;48.650;9.290;2023-07-29T06:30:30;3.42;;;1.20;;
57856;SDS011;43683;48.650;9.290;2023-07-29T06:32:56;1.77;;;1.30;;
57856;SDS011;43683;48.650;9.290;2023-07-29T06:35:21;1.52;;;1.10;;
57856;SDS011;43683;48.650;9.290;2023-07-29T06:37:47;3.72;;;1.88;;
57856;SDS011;43683;48.650;9.290;2023-07-29T06:40:12;2.33;;;1.20;;
57856;SDS011;43683;48.650;9.290;2023-07-29T06:42:38;2.80;;;1.30;;
57856;SDS011;43683;48.650;9.290;2023-07-29T06:45:04;4.07;;;1.40;;
57856;SDS011;43683;48.650;9.290;2023-07-29T06:47:30;1.85;;;1.30;;
57856;SDS011;43683;48.650;9.290;2023-07-29T06:49:56;1.42;;;1.27;;
57856;SDS011;43683;48.650;9.290;2023-07-29T06:52:21;2.17;;;1.38;;
57856;SDS011;43683;48.650;9.290;2023-07-29T06:54:47;4.30;;;1.67;;
57856;SDS011;43683;48.650;9.290;2023-07-29T06:57:12;2.83;;;1.27;;
57856;SDS011;43683;48.650;9.290;2023-07-29T06:59:38;7.40;;;1.95;;
57856;SDS011;43683;48.650;9.290;2023-07-29T07:02:03;6.50;;;1.80;;
57856;SDS011;43683;48.650;9.290;2023-07-29T07:04:29;4.70;;;1.92;;
57856;SDS011;43683;48.650;9.290;2023-07-29T07:06:55;6.85;;;2.35;;
57856;SDS011;43683;48.650;9.290;2023-07-29T07:09:20;7.28;;;2.55;;
57856;SDS011;43683;48.650;9.290;2023-07-29T07:11:46;8.95;;;2.88;;
57856;SDS011;43683;48.650;9.290;2023-07-29T07:14:11;4.85;;;1.60;;
57856;SDS011;43683;48.650;9.290;2023-07-29T07:16:37;6.68;;;1.80;;
57856;SDS011;43683;48.650;9.290;2023-07-29T07:19:04;6.78;;;1.23;;
57856;SDS011;43683;48.650;9.290;2023-07-29T07:21:29;2.78;;;1.33;;
57856;SDS011;43683;48.650;9.290;2023-07-29T07:23:57;2.90;;;0.80;;
57856;SDS011;43683;48.650;9.290;2023-07-29T07:26:23;1.88;;;0.60;;
57856;SDS011;43683;48.650;9.290;2023-07-29T07:28:48;1.35;;;0.60;;
57856;SDS011;43683;48.650;9.290;2023-07-29T07:31:14;1.48;;;0.70;;
57856;SDS011;43683;48.650;9.290;2023-07-29T07:33:41;2.10;;;0.90;;
57856;SDS011;43683;48.650;9.290;2023-07-29T07:36:06;1.58;;;0.95;;
57856;SDS011;43683;48.650;9.290;2023-07-29T07:38:32;2.65;;;0.80;;
57856;SDS011;43683;48.650;9.290;2023-07-29T07:40:58;1.83;;;1.00;;
57856;SDS011;43683;48.650;9.290;2023-07-29T07:43:24;2.47;;;1.00;;
57856;SDS011;43683;48.650;9.290;2023-07-29T07:45:49;4.88;;;1.20;;
57856;SDS011;43683;48.650;9.290;2023-07-29T07:48:16;2.75;;;1.40;;
57856;SDS011;43683;48.650;9.290;2023-07-29T07:50:42;9.35;;;2.65;;
57856;SDS011;43683;48.650;9.290;2023-07-29T07:53:08;13.02;;;3.25;;
57856;SDS011;43683;48.650;9.290;2023-07-29T07:55:33;18.00;;;3.25;;
57856;SDS011;43683;48.650;9.290;2023-07-29T07:57:59;7.63;;;3.13;;
57856;SDS011;43683;48.650;9.290;2023-07-29T08:00:24;3.45;;;2.20;;
57856;SDS011;43683;48.650;9.290;2023-07-29T08:02:50;5.38;;;1.90;;
57856;SDS011;43683;48.650;9.290;2023-07-29T08:05:16;5.07;;;2.13;;
57856;SDS011;43683;48.650;9.290;2023-07-29T08:07:41;4.50;;;2.17;;
57856;SDS011;43683;48.650;9.290;2023-07-29T08:10:07;10.88;;;3.08;;
57856;SDS011;43683;48.650;9.290;2023-07-29T08:12:33;6.15;;;2.67;;
57856;SDS011;43683;48.650;9.290;2023-07-29T08:14:59;11.75;;;4.07;;
57856;SDS011;43683;48.650;9.290;2023-07-29T08:17:24;5.18;;;2.13;;
57856;SDS011;43683;48.650;9.290;2023-07-29T08:19:50;6.47;;;2.25;;
57856;SDS011;43683;48.650;9.290;2023-07-29T08:22:15;6.85;;;2.70;;
57856;SDS011;43683;48.650;9.290;2023-07-29T08:24:42;3.78;;;2.25;;
57856;SDS011;43683;48.650;9.290;2023-07-29T08:27:07;4.53;;;2.13;;
57856;SDS011;43683;48.650;9.290;2023-07-29T08:29:33;4.40;;;2.17;;
57856;SDS011;43683;48.650;9.290;2023-07-29T08:31:59;3.35;;;1.80;;
57856;SDS011;43683;48.650;9.290;2023-07-29T08:34:24;11.70;;;2.97;;
57856;SDS011;43683;48.650;9.290;2023-07-29T08:36:50;9.32;;;2.85;;
57856;SDS011;43683;48.650;9.290;2023-07-29T08:39:15;5.40;;;2.38;;
57856;SDS011;43683;48.650;9.290;2023-07-29T08:41:45;4.95;;;2.47;;
57856;SDS011;43683;48.650;9.290;2023-07-29T08:44:26;22.00;;;5.00;;
57856;SDS011;43683;48.650;9.290;2023-07-29T08:46:56;14.05;;;3.20;;
57856;SDS011;43683;48.650;9.290;2023-07-29T08:49:22;10.30;;;2.42;;
57856;SDS011;43683;48.650;9.290;2023-07-29T08:51:49;6.68;;;2.20;;
57856;SDS011;43683;48.650;9.290;2023-07-29T08:54:15;4.15;;;1.80;;
57856;SDS011;43683;48.650;9.290;2023-07-29T08:56:41;2.58;;;1.35;;
57856;SDS011;43683;48.650;9.290;2023-07-29T08:59:10;6.40;;;2.38;;
57856;SDS011;43683;48.650;9.290;2023-07-29T09:01:39;13.05;;;3.22;;
57856;SDS011;43683;48.650;9.290;2023-07-29T09:04:06;7.93;;;2.28;;
57856;SDS011;43683;48.650;9.290;2023-07-29T09:06:32;14.85;;;3.33;;
57856;SDS011;43683;48.650;9.290;2023-07-29T09:11:26;7.45;;;2.05;;
57856;SDS011;43683;48.650;9.290;2023-07-29T09:13:52;4.55;;;1.85;;
57856;SDS011;43683;48.650;9.290;2023-07-29T09:16:18;3.83;;;1.63;;
57856;SDS011;43683;48.650;9.290;2023-07-29T09:18:45;4.45;;;1.85;;
57856;SDS011;43683;48.650;9.290;2023-07-29T09:21:13;1.85;;;1.33;;
57856;SDS011;43683;48.650;9.290;2023-07-29T09:23:41;2.63;;;1.63;;
57856;SDS011;43683;48.650;9.290;2023-07-29T09:26:07;2.08;;;1.20;;
57856;SDS011;43683;48.650;9.290;2023-07-29T09:28:34;2.97;;;1.38;;
57856;SDS011;43683;48.650;9.290;2023-07-29T09:31:01;2.65;;;1.50;;
57856;SDS011;43683;48.650;9.290;2023-07-29T09:33:27;3.95;;;1.60;;
57856;SDS011;43683;48.650;9.290;2023-07-29T09:35:53;3.60;;;1.58;;
57856;SDS011;43683;48.650;9.290;2023-07-29T09:38:25;2.92;;;1.70;;
57856;SDS011;43683;48.650;9.290;2023-07-29T09:40:57;3.72;;;1.58;;
57856;SDS011;43683;48.650;9.290;2023-07-29T09:43:28;3.63;;;1.30;;
57856;SDS011;43683;48.650;9.290;2023-07-29T09:45:55;2.83;;;1.50;;
57856;SDS011;43683;48.650;9.290;2023-07-29T09:48:24;2.70;;;1.20;;
57856;SDS011;43683;48.650;9.290;2023-07-29T09:50:50;1.35;;;1.20;;
57856;SDS011;43683;48.650;9.290;2023-07-29T09:53:16;2.88;;;1.50;;
57856;SDS011;43683;48.650;9.290;2023-07-29T09:55:48;1.92;;;1.10;;
57856;SDS011;43683;48.650;9.290;2023-07-29T09:58:16;2.13;;;1.60;;
57856;SDS011;43683;48.650;9.290;2023-07-29T10:00:50;1.77;;;1.20;;
57856;SDS011;43683;48.650;9.290;2023-07-29T10:03:16;1.70;;;1.40;;
57856;SDS011;43683;48.650;9.290;2023-07-29T10:05:45;2.67;;;1.70;;
57856;SDS011;43683;48.650;9.290;2023-07-29T10:08:11;3.83;;;1.55;;
57856;SDS011;43683;48.650;9.290;2023-07-29T10:10:37;3.90;;;1.40;;
57856;SDS011;43683;48.650;9.290;2023-07-29T10:13:03;2.85;;;1.40;;
57856;SDS011;43683;48.650;9.290;2023-07-29T10:15:29;2.33;;;1.40;;
57856;SDS011;43683;48.650;9.290;2023-07-29T10:17:57;2.97;;;1.42;;
57856;SDS011;43683;48.650;9.290;2023-07-29T10:20:24;2.25;;;1.30;;
57856;SDS011;43683;48.650;9.290;2023-07-29T10:22:50;2.38;;;1.48;;
57856;SDS011;43683;48.650;9.290;2023-07-29T10:25:23;4.32;;;1.50;;
57856;SDS011;43683;48.650;9.290;2023-07-29T10:28:04;2.85;;;1.33;;
57856;SDS011;43683;48.650;9.290;2023-07-29T10:30:31;2.17;;;1.42;;
57856;SDS011;43683;48.650;9.290;2023-07-29T10:32:58;1.45;;;1.20;;
57856;SDS011;43683;48.650;9.290;2023-07-29T10:35:27;2.20;;;1.20;;
57856;SDS011;43683;48.650;9.290;2023-07-29T10:37:53;1.80;;;1.37;;
57856;SDS011;43683;48.650;9.290;2023-07-29T10:40:20;2.13;;;1.33;;
57856;SDS011;43683;48.650;9.290;2023-07-29T10:43:00;2.15;;;1.40;;
57856;SDS011;43683;48.650;9.290;2023-07-29T10:45:39;3.08;;;1.55;;
57856;SDS011;43683;48.650;9.290;2023-07-29T10:48:12;2.42;;;1.20;;
57856;SDS011;43683;48.650;9.290;2023-07-29T10:53:53;2.67;;;1.30;;
57856;SDS011;43683;48.650;9.290;2023-07-29T10:56:28;1.50;;;1.20;;
57856;SDS011;43683;48.650;9.290;2023-07-29T10:58:56;1.88;;;1.20;;
57856;SDS011;43683;48.650;9.290;2023-07-29T11:01:30;2.60;;;1.25;;
57856;SDS011;43683;48.650;9.290;2023-07-29T11:04:45;3.22;;;1.30;;
57856;SDS011;43683;48.650;9.290;2023-07-29T11:07:01;2.08;;;1.20;;
57856;SDS011;43683;48.650;9.290;2023-07-29T11:17:41;3.60;;;1.35;;
57856;SDS011;43683;48.650;9.290;2023-07-29T11:20:32;1.95;;;1.10;;
57856;SDS011;43683;48.650;9.290;2023-07-29T11:22:59;2.40;;;1.20;;
57856;SDS011;43683;48.650;9.290;2023-07-29T11:25:27;1.90;;;1.23;;
57856;SDS011;43683;48.650;9.290;2023-07-29T11:27:55;3.25;;;1.38;;
57856;SDS011;43683;48.650;9.290;2023-07-29T11:30:22;2.80;;;1.40;;
57856;SDS011;43683;48.650;9.290;2023-07-29T11:32:48;2.63;;;1.30;;
57856;SDS011;43683;48.650;9.290;2023-07-29T11:35:18;2.40;;;1.30;;
57856;SDS011;43683;48.650;9.290;2023-07-29T11:37:45;2.80;;;1.50;;
57856;SDS011;43683;48.650;9.290;2023-07-29T11:40:15;2.22;;;1.50;;
57856;SDS011;43683;48.650;9.290;2023-07-29T11:42:42;2.45;;;1.45;;
57856;SDS011;43683;48.650;9.290;2023-07-29T11:45:08;2.50;;;1.30;;
57856;SDS011;43683;48.650;9.290;2023-07-29T11:47:35;3.00;;;1.50;;
57856;SDS011;43683;48.650;9.290;2023-07-29T11:50:02;1.42;;;1.13;;
57856;SDS011;43683;48.650;9.290;2023-07-29T11:52:29;2.00;;;1.50;;
57856;SDS011;43683;48.650;9.290;2023-07-29T11:54:57;1.63;;;1.35;;
57856;SDS011;43683;48.650;9.290;2023-07-29T11:57:23;3.50;;;1.60;;
57856;SDS011;43683;48.650;9.290;2023-07-29T11:59:49;2.57;;;1.40;;
57856;SDS011;43683;48.650;9.290;2023-07-29T12:02:15;3.58;;;1.58;;
57856;SDS011;43683;48.650;9.290;2023-07-29T12:04:44;3.40;;;1.27;;
57856;SDS011;43683;48.650;9.290;2023-07-29T12:07:12;2.13;;;1.55;;
57856;SDS011;43683;48.650;9.290;2023-07-29T12:09:40;2.53;;;1.50;;
57856;SDS011;43683;48.650;9.290;2023-07-29T12:12:06;1.83;;;1.23;;
57856;SDS011;43683;48.650;9.290;2023-07-29T12:14:33;1.53;;;1.10;;
57856;SDS011;43683;48.650;9.290;2023-07-29T12:16:59;2.90;;;1.60;;
57856;SDS011;43683;48.650;9.290;2023-07-29T12:19:34;1.98;;;1.50;;
57856;SDS011;43683;48.650;9.290;2023-07-29T12:22:04;2.42;;;1.40;;
57856;SDS011;43683;48.650;9.290;2023-07-29T12:24:31;2.38;;;1.30;;
57856;SDS011;43683;48.650;9.290;2023-07-29T12:26:59;2.75;;;1.30;;
57856;SDS011;43683;48.650;9.290;2023-07-29T12:29:25;3.75;;;1.48;;
57856;SDS011;43683;48.650;9.290;2023-07-29T12:32:01;2.80;;;1.47;;
57856;SDS011;43683;48.650;9.290;2023-07-29T12:34:28;2.03;;;1.33;;
57856;SDS011;43683;48.650;9.290;2023-07-29T12:36:55;3.00;;;1.20;;
57856;SDS011;43683;48.650;9.290;2023-07-29T12:39:27;2.72;;;1.58;;
57856;SDS011;43683;48.650;9.290;2023-07-29T12:41:54;2.83;;;1.40;;
57856;SDS011;43683;48.650;9.290;2023-07-29T12:44:24;2.80;;;1.35;;
57856;SDS011;43683;48.650;9.290;2023-07-29T12:46:51;1.35;;;1.00;;
57856;SDS011;43683;48.650;9.290;2023-07-29T12:49:17;2.30;;;1.30;;
57856;SDS011;43683;48.650;9.290;2023-07-29T12:51:45;3.65;;;1.35;;
57856;SDS011;43683;48.650;9.290;2023-07-29T12:54:11;2.20;;;1.40;;
57856;SDS011;43683;48.650;9.290;2023-07-29T12:56:36;2.50;;;1.60;;
57856;SDS011;43683;48.650;9.290;2023-07-29T12:59:02;2.25;;;1.40;;
57856;SDS011;43683;48.650;9.290;2023-07-29T13:01:28;2.10;;;1.33;;
57856;SDS011;43683;48.650;9.290;2023-07-29T13:03:54;1.73;;;1.10;;
57856;SDS011;43683;48.650;9.290;2023-07-29T13:06:21;3.08;;;1.35;;
57856;SDS011;43683;48.650;9.290;2023-07-29T13:08:47;2.43;;;1.13;;
57856;SDS011;43683;48.650;9.290;2023-07-29T13:11:13;2.23;;;1.27;;
57856;SDS011;43683;48.650;9.290;2023-07-29T13:13:39;2.28;;;1.23;;
57856;SDS011;43683;48.650;9.290;2023-07-29T13:16:05;2.38;;;1.15;;
57856;SDS011;43683;48.650;9.290;2023-07-29T13:18:31;3.20;;;1.30;;
57856;SDS011;43683;48.650;9.290;2023-07-29T13:20:56;2.30;;;1.00;;
57856;SDS011;43683;48.650;9.290;2023-07-29T13:23:22;2.28;;;1.50;;
57856;SDS011;43683;48.650;9.290;2023-07-29T13:25:49;1.92;;;1.02;;
57856;SDS011;43683;48.650;9.290;2023-07-29T13:28:15;2.57;;;1.40;;
57856;SDS011;43683;48.650;9.290;2023-07-29T13:30:41;2.08;;;1.17;;
57856;SDS011;43683;48.650;9.290;2023-07-29T13:33:07;2.15;;;1.25;;
57856;SDS011;43683;48.650;9.290;2023-07-29T13:35:33;1.70;;;1.23;;
57856;SDS011;43683;48.650;9.290;2023-07-29T13:37:58;3.87;;;1.33;;
57856;SDS011;43683;48.650;9.290;2023-07-29T13:40:24;2.70;;;1.42;;
57856;SDS011;43683;48.650;9.290;2023-07-29T13:42:50;2.07;;;1.20;;
57856;SDS011;43683;48.650;9.290;2023-07-29T13:45:16;1.63;;;1.02;;
57856;SDS011;43683;48.650;9.290;2023-07-29T13:47:42;2.13;;;1.27;;
57856;SDS011;43683;48.650;9.290;2023-07-29T13:50:08;2.10;;;1.10;;
57856;SDS011;43683;48.650;9.290;2023-07-29T13:52:33;2.03;;;1.27;;
57856;SDS011;43683;48.650;9.290;2023-07-29T13:55:00;1.65;;;1.13;;
57856;SDS011;43683;48.650;9.290;2023-07-29T13:57:26;2.53;;;1.20;;
57856;SDS011;43683;48.650;9.290;2023-07-29T13:59:51;2.08;;;1.20;;
57856;SDS011;43683;48.650;9.290;2023-07-29T14:02:17;2.40;;;1.30;;
57856;SDS011;43683;48.650;9.290;2023-07-29T14:04:43;2.20;;;1.10;;
57856;SDS011;43683;48.650;9.290;2023-07-29T14:07:09;1.97;;;1.53;;
57856;SDS011;43683;48.650;9.290;2023-07-29T14:09:34;2.03;;;1.33;;
57856;SDS011;43683;48.650;9.290;2023-07-29T14:12:00;3.27;;;1.20;;
57856;SDS011;43683;48.650;9.290;2023-07-29T14:14:25;1.65;;;1.20;;
57856;SDS011;43683;48.650;9.290;2023-07-29T14:16:51;3.45;;;1.42;;
57856;SDS011;43683;48.650;9.290;2023-07-29T14:19:17;4.22;;;1.40;;
57856;SDS011;43683;48.650;9.290;2023-07-29T14:21:43;2.83;;;1.20;;
57856;SDS011;43683;48.650;9.290;2023-07-29T14:24:08;1.83;;;1.30;;
57856;SDS011;43683;48.650;9.290;2023-07-29T14:26:34;2.22;;;1.35;;
57856;SDS011;43683;48.650;9.290;2023-07-29T14:28:59;1.80;;;1.10;;
57856;SDS011;43683;48.650;9.290;2023-07-29T14:31:25;2.88;;;1.10;;
57856;SDS011;43683;48.650;9.290;2023-07-29T14:33:50;2.35;;;1.30;;
57856;SDS011;43683;48.650;9.290;2023-07-29T14:36:16;2.13;;;1.20;;
57856;SDS011;43683;48.650;9.290;2023-07-29T14:38:41;2.28;;;1.20;;
57856;SDS011;43683;48.650;9.290;2023-07-29T14:41:07;2.43;;;1.20;;
57856;SDS011;43683;48.650;9.290;2023-07-29T14:43:33;2.03;;;1.00;;
57856;SDS011;43683;48.650;9.290;2023-07-29T14:45:59;1.97;;;1.27;;
57856;SDS011;43683;48.650;9.290;2023-07-29T14:48:25;2.63;;;1.05;;
57856;SDS011;43683;48.650;9.290;2023-07-29T14:50:50;2.37;;;1.20;;
57856;SDS011;43683;48.650;9.290;2023-07-29T14:53:16;1.57;;;1.10;;
57856;SDS011;43683;48.650;9.290;2023-07-29T14:55:42;1.97;;;1.30;;
57856;SDS011;43683;48.650;9.290;2023-07-29T14:58:07;2.92;;;1.35;;
57856;SDS011;43683;48.650;9.290;2023-07-29T15:00:33;1.52;;;1.13;;
57856;SDS011;43683;48.650;9.290;2023-07-29T15:02:58;2.60;;;1.35;;
57856;SDS011;43683;48.650;9.290;2023-07-29T15:05:24;1.85;;;1.20;;